sensor_id;sensor_type;location;lat;lon;timestamp;pressure;altitude;pressure_sealevel;temperature;humidity
77626;BME280;66794;43.764;10.436;2023-02-10T00:01:19;103723.47;;;0.31;59.09
77626;BME280;66794;43.764;10.436;2023-02-10T00:03:45;103707.03;;;0.49;58.79
77626;BME280;66794;43.764;10.436;2023-02-10T00:06:12;103714.22;;;0.82;57.50
77626;BME280;66794;43.764;10.436;2023-02-10T00:08:38;103715.84;;;0.87;57.77
77626;BME280;66794;43.764;10.436;2023-02-10T00:11:09;103694.25;;;0.62;58.10
77626;BME280;66794;43.764;10.436;2023-02-10T00:13:38;103712.44;;;0.46;59.92
77626;BME280;66794;43.764;10.436;2023-02-10T00:16:06;103718.59;;;0.84;58.51
77626;BME280;66794;43.764;10.436;2023-02-10T00:18:32;103717.13;;;1.05;57.94
77626;BME280;66794;43.764;10.436;2023-02-10T00:21:14;103719.06;;;1.00;56.55
77626;BME280;66794;43.764;10.436;2023-02-10T00:23:40;103655.94;;;0.66;58.11
77626;BME280;66794;43.764;10.436;2023-02-10T00:26:07;103713.50;;;1.39;53.75
77626;BME280;66794;43.764;10.436;2023-02-10T00:28:34;103712.19;;;1.22;54.08
77626;BME280;66794;43.764;10.436;2023-02-10T00:31:05;103641.44;;;0.75;54.80
77626;BME280;66794;43.764;10.436;2023-02-10T00:33:31;103700.72;;;1.50;51.14
77626;BME280;66794;43.764;10.436;2023-02-10T00:35:56;103637.19;;;1.31;50.41
77626;BME280;66794;43.764;10.436;2023-02-10T00:38:22;103675.09;;;1.72;49.49
77626;BME280;66794;43.764;10.436;2023-02-10T00:40:47;103648.09;;;1.53;49.48
77626;BME280;66794;43.764;10.436;2023-02-10T00:43:13;103693.25;;;1.91;48.69
77626;BME280;66794;43.764;10.436;2023-02-10T00:45:38;103648.28;;;1.75;47.96
77626;BME280;66794;43.764;10.436;2023-02-10T00:48:04;103695.25;;;2.12;47.53
77626;BME280;66794;43.764;10.436;2023-02-10T00:50:29;103699.50;;;1.90;51.07
77626;BME280;66794;43.764;10.436;2023-02-10T00:52:55;103702.09;;;1.01;57.58
77626;BME280;66794;43.764;10.436;2023-02-10T00:55:20;103698.34;;;0.75;58.47
77626;BME280;66794;43.764;10.436;2023-02-10T00:57:45;103674.19;;;0.82;56.85
77626;BME280;66794;43.764;10.436;2023-02-10T01:00:11;103699.72;;;0.90;55.27
77626;BME280;66794;43.764;10.436;2023-02-10T01:02:37;103702.22;;;0.98;54.85
77626;BME280;66794;43.764;10.436;2023-02-10T01:05:02;103672.56;;;0.42;57.14
77626;BME280;66794;43.764;10.436;2023-02-10T01:07:28;103670.84;;;0.04;58.69
77626;BME280;66794;43.764;10.436;2023-02-10T01:09:54;103698.09;;;0.16;59.21
77626;BME280;66794;43.764;10.436;2023-02-10T01:12:20;103694.88;;;0.38;57.19
77626;BME280;66794;43.764;10.436;2023-02-10T01:14:45;103702.50;;;0.17;60.47
77626;BME280;66794;43.764;10.436;2023-02-10T01:17:11;103659.41;;;0.00;61.21
77626;BME280;66794;43.764;10.436;2023-02-10T01:19:36;103702.38;;;-0.15;60.98
77626;BME280;66794;43.764;10.436;2023-02-10T01:22:02;103680.66;;;0.37;58.57
77626;BME280;66794;43.764;10.436;2023-02-10T01:24:27;103685.16;;;0.69;55.16
77626;BME280;66794;43.764;10.436;2023-02-10T01:26:53;103686.59;;;0.50;56.97
77626;BME280;66794;43.764;10.436;2023-02-10T01:29:18;103662.69;;;0.45;57.22
77626;BME280;66794;43.764;10.436;2023-02-10T01:31:44;103614.63;;;-0.21;58.63
77626;BME280;66794;43.764;10.436;2023-02-10T01:34:09;103635.06;;;0.14;58.17
77626;BME280;66794;43.764;10.436;2023-02-10T01:36:35;103680.03;;;-0.10;58.95
77626;BME280;66794;43.764;10.436;2023-02-10T01:39:00;103635.78;;;-0.15;58.82
77626;BME280;66794;43.764;10.436;2023-02-10T01:41:26;103636.09;;;0.08;58.57
77626;BME280;66794;43.764;10.436;2023-02-10T01:43:58;103675.75;;;0.22;59.37
77626;BME280;66794;43.764;10.436;2023-02-10T01:46:25;103670.59;;;-0.24;61.02
77626;BME280;66794;43.764;10.436;2023-02-10T01:48:51;103675.09;;;-0.27;60.47
77626;BME280;66794;43.764;10.436;2023-02-10T01:51:19;103618.91;;;-0.55;60.06
77626;BME280;66794;43.764;10.436;2023-02-10T01:53:47;103663.69;;;-0.32;60.78
77626;BME280;66794;43.764;10.436;2023-02-10T01:56:15;103666.63;;;-0.05;59.69
77626;BME280;66794;43.764;10.436;2023-02-10T01:58:41;103611.63;;;-0.46;59.72
77626;BME280;66794;43.764;10.436;2023-02-10T02:01:09;103673.41;;;-0.31;60.91
77626;BME280;66794;43.764;10.436;2023-02-10T02:03:34;103604.81;;;-0.58;60.21
77626;BME280;66794;43.764;10.436;2023-02-10T02:06:01;103657.09;;;-0.17;60.27
77626;BME280;66794;43.764;10.436;2023-02-10T02:08:30;103626.75;;;-0.47;60.39
77626;BME280;66794;43.764;10.436;2023-02-10T02:23:33;103653.59;;;-0.58;62.10
77626;BME280;66794;43.764;10.436;2023-02-10T02:34:09;103615.09;;;-1.73;65.33
77626;BME280;66794;43.764;10.436;2023-02-10T02:36:40;103655.84;;;-1.74;66.40
77626;BME280;66794;43.764;10.436;2023-02-10T02:39:08;103656.63;;;-2.24;68.78
77626;BME280;66794;43.764;10.436;2023-02-10T02:41:34;103645.56;;;-1.97;67.99
77626;BME280;66794;43.764;10.436;2023-02-10T02:44:01;103663.38;;;-1.49;66.18
77626;BME280;66794;43.764;10.436;2023-02-10T02:51:40;103672.63;;;-1.22;65.95
77626;BME280;66794;43.764;10.436;2023-02-10T02:54:27;103672.69;;;-1.25;66.56
77626;BME280;66794;43.764;10.436;2023-02-10T02:57:09;103669.13;;;-1.24;66.31
77626;BME280;66794;43.764;10.436;2023-02-10T02:59:50;103670.66;;;-1.61;67.74
77626;BME280;66794;43.764;10.436;2023-02-10T03:02:18;103676.56;;;-1.43;67.50
77626;BME280;66794;43.764;10.436;2023-02-10T03:04:45;103658.69;;;-1.35;65.78
77626;BME280;66794;43.764;10.436;2023-02-10T03:07:11;103681.47;;;-1.22;65.41
77626;BME280;66794;43.764;10.436;2023-02-10T03:09:37;103646.47;;;-1.45;65.90
77626;BME280;66794;43.764;10.436;2023-02-10T03:12:02;103672.38;;;-1.09;64.75
77626;BME280;66794;43.764;10.436;2023-02-10T03:14:28;103606.44;;;-1.38;64.83
77626;BME280;66794;43.764;10.436;2023-02-10T03:16:53;103664.25;;;-1.01;64.48
77626;BME280;66794;43.764;10.436;2023-02-10T03:19:19;103616.28;;;-1.43;64.89
77626;BME280;66794;43.764;10.436;2023-02-10T03:21:44;103635.38;;;-1.19;64.87
77626;BME280;66794;43.764;10.436;2023-02-10T03:24:10;103656.31;;;-1.02;64.29
77626;BME280;66794;43.764;10.436;2023-02-10T03:26:36;103634.50;;;-1.21;65.51
77626;BME280;66794;43.764;10.436;2023-02-10T03:29:02;103660.00;;;-1.59;68.88
77626;BME280;66794;43.764;10.436;2023-02-10T03:31:28;103614.16;;;-1.72;69.19
77626;BME280;66794;43.764;10.436;2023-02-10T03:33:54;103663.78;;;-1.23;68.40
77626;BME280;66794;43.764;10.436;2023-02-10T03:36:19;103655.72;;;-1.20;67.48
77626;BME280;66794;43.764;10.436;2023-02-10T03:38:44;103631.53;;;-1.52;67.51
77626;BME280;66794;43.764;10.436;2023-02-10T03:41:11;103665.00;;;-1.41;67.50
77626;BME280;66794;43.764;10.436;2023-02-10T03:43:36;103632.91;;;-1.79;68.05
77626;BME280;66794;43.764;10.436;2023-02-10T03:46:03;103673.31;;;-1.61;69.27
77626;BME280;66794;43.764;10.436;2023-02-10T03:48:29;103595.19;;;-2.01;67.59
77626;BME280;66794;43.764;10.436;2023-02-10T03:51:00;103618.72;;;-1.78;67.55
77626;BME280;66794;43.764;10.436;2023-02-10T03:53:27;103651.28;;;-1.18;65.02
77626;BME280;66794;43.764;10.436;2023-02-10T03:55:53;103669.09;;;-1.23;65.77
77626;BME280;66794;43.764;10.436;2023-02-10T03:58:18;103607.72;;;-1.59;65.69
77626;BME280;66794;43.764;10.436;2023-02-10T04:00:44;103673.94;;;-0.97;64.50
77626;BME280;66794;43.764;10.436;2023-02-10T04:03:09;103607.41;;;-1.40;65.17
77626;BME280;66794;43.764;10.436;2023-02-10T04:05:35;103652.34;;;-1.28;65.73
77626;BME280;66794;43.764;10.436;2023-02-10T04:08:00;103611.81;;;-1.39;65.02
77626;BME280;66794;43.764;10.436;2023-02-10T04:10:26;103659.03;;;-1.55;67.15
77626;BME280;66794;43.764;10.436;2023-02-10T04:12:52;103654.75;;;-1.62;67.52
77626;BME280;66794;43.764;10.436;2023-02-10T04:15:17;103672.44;;;-1.61;67.42
77626;BME280;66794;43.764;10.436;2023-02-10T04:17:43;103668.69;;;-1.49;66.79
77626;BME280;66794;43.764;10.436;2023-02-10T04:20:09;103669.72;;;-1.56;66.63
77626;BME280;66794;43.764;10.436;2023-02-10T04:22:35;103623.41;;;-2.53;68.87
77626;BME280;66794;43.764;10.436;2023-02-10T04:25:00;103680.91;;;-1.92;67.60
77626;BME280;66794;43.764;10.436;2023-02-10T04:27:26;103642.34;;;-2.80;70.64
77626;BME280;66794;43.764;10.436;2023-02-10T04:29:51;103677.66;;;-2.75;71.04
77626;BME280;66794;43.764;10.436;2023-02-10T04:32:17;103674.69;;;-3.28;72.58
77626;BME280;66794;43.764;10.436;2023-02-10T04:34:42;103680.63;;;-3.03;72.67
77626;BME280;66794;43.764;10.436;2023-02-10T04:37:08;103688.28;;;-2.77;71.83
77626;BME280;66794;43.764;10.436;2023-02-10T04:39:33;103668.19;;;-2.28;69.74
77626;BME280;66794;43.764;10.436;2023-02-10T04:41:58;103671.78;;;-2.34;69.59
77626;BME280;66794;43.764;10.436;2023-02-10T04:44:24;103693.50;;;-2.04;70.02
77626;BME280;66794;43.764;10.436;2023-02-10T04:46:49;103678.59;;;-2.15;69.96
77626;BME280;66794;43.764;10.436;2023-02-10T04:49:16;103702.31;;;-2.01;69.58
77626;BME280;66794;43.764;10.436;2023-02-10T04:51:42;103710.03;;;-1.86;69.44
77626;BME280;66794;43.764;10.436;2023-02-10T04:54:08;103675.38;;;-1.78;68.07
77626;BME280;66794;43.764;10.436;2023-02-10T04:56:33;103701.88;;;-1.73;68.15
77626;BME280;66794;43.764;10.436;2023-02-10T04:58:59;103700.22;;;-1.79;68.27
77626;BME280;66794;43.764;10.436;2023-02-10T05:01:24;103674.59;;;-1.83;67.83
77626;BME280;66794;43.764;10.436;2023-02-10T05:03:49;103648.06;;;-1.84;67.08
77626;BME280;66794;43.764;10.436;2023-02-10T05:06:15;103690.59;;;-1.37;66.51
77626;BME280;66794;43.764;10.436;2023-02-10T05:08:42;103681.94;;;-1.46;66.49
77626;BME280;66794;43.764;10.436;2023-02-10T05:11:08;103682.84;;;-1.49;66.46
77626;BME280;66794;43.764;10.436;2023-02-10T05:13:35;103582.47;;;-2.36;68.14
77626;BME280;66794;43.764;10.436;2023-02-10T05:16:00;103647.44;;;-2.03;68.89
77626;BME280;66794;43.764;10.436;2023-02-10T05:18:31;103660.69;;;-2.02;69.39
77626;BME280;66794;43.764;10.436;2023-02-10T05:20:57;103690.63;;;-1.91;69.02
77626;BME280;66794;43.764;10.436;2023-02-10T05:23:24;103658.69;;;-2.46;70.71
77626;BME280;66794;43.764;10.436;2023-02-10T05:25:50;103655.03;;;-2.36;70.36
77626;BME280;66794;43.764;10.436;2023-02-10T05:28:15;103604.97;;;-2.62;71.34
77626;BME280;66794;43.764;10.436;2023-02-10T05:30:40;103605.03;;;-2.67;71.26
77626;BME280;66794;43.764;10.436;2023-02-10T05:33:06;103678.25;;;-1.92;69.06
77626;BME280;66794;43.764;10.436;2023-02-10T05:35:31;103689.63;;;-1.82;68.66
77626;BME280;66794;43.764;10.436;2023-02-10T05:37:57;103691.97;;;-2.21;69.69
77626;BME280;66794;43.764;10.436;2023-02-10T05:40:22;103666.41;;;-2.29;70.47
77626;BME280;66794;43.764;10.436;2023-02-10T05:42:49;103687.22;;;-1.99;69.30
77626;BME280;66794;43.764;10.436;2023-02-10T05:45:15;103683.06;;;-2.18;69.45
77626;BME280;66794;43.764;10.436;2023-02-10T05:47:40;103708.38;;;-1.93;68.89
77626;BME280;66794;43.764;10.436;2023-02-10T05:50:06;103711.84;;;-1.88;68.15
77626;BME280;66794;43.764;10.436;2023-02-10T05:52:31;103704.06;;;-2.01;68.54
77626;BME280;66794;43.764;10.436;2023-02-10T05:54:57;103693.06;;;-2.35;69.50
77626;BME280;66794;43.764;10.436;2023-02-10T05:57:22;103650.75;;;-2.46;69.26
77626;BME280;66794;43.764;10.436;2023-02-10T05:59:47;103721.84;;;-2.05;70.05
77626;BME280;66794;43.764;10.436;2023-02-10T06:02:13;103703.47;;;-2.20;69.16
77626;BME280;66794;43.764;10.436;2023-02-10T06:04:38;103738.00;;;-2.23;69.87
77626;BME280;66794;43.764;10.436;2023-02-10T06:07:04;103724.75;;;-2.23;69.69
77626;BME280;66794;43.764;10.436;2023-02-10T06:09:30;103743.91;;;-2.01;68.45
77626;BME280;66794;43.764;10.436;2023-02-10T06:11:55;103700.47;;;-2.62;70.08
77626;BME280;66794;43.764;10.436;2023-02-10T06:14:21;103742.97;;;-2.67;73.89
77626;BME280;66794;43.764;10.436;2023-02-10T06:16:47;103740.34;;;-2.68;74.75
77626;BME280;66794;43.764;10.436;2023-02-10T06:19:12;103713.59;;;-2.48;72.18
77626;BME280;66794;43.764;10.436;2023-02-10T06:21:37;103764.50;;;-2.19;71.03
77626;BME280;66794;43.764;10.436;2023-02-10T06:24:03;103718.88;;;-3.25;73.56
77626;BME280;66794;43.764;10.436;2023-02-10T06:26:29;103754.13;;;-3.19;75.60
77626;BME280;66794;43.764;10.436;2023-02-10T06:28:55;103764.94;;;-3.43;75.53
77626;BME280;66794;43.764;10.436;2023-02-10T06:31:21;103743.31;;;-4.05;78.49
77626;BME280;66794;43.764;10.436;2023-02-10T06:33:47;103719.84;;;-4.83;79.95
77626;BME280;66794;43.764;10.436;2023-02-10T06:36:13;103777.81;;;-4.26;78.91
77626;BME280;66794;43.764;10.436;2023-02-10T06:38:38;103756.47;;;-3.97;77.00
77626;BME280;66794;43.764;10.436;2023-02-10T06:41:05;103782.44;;;-3.19;74.57
77626;BME280;66794;43.764;10.436;2023-02-10T06:43:31;103787.41;;;-2.88;72.85
77626;BME280;66794;43.764;10.436;2023-02-10T06:45:57;103727.13;;;-3.62;74.13
77626;BME280;66794;43.764;10.436;2023-02-10T06:48:22;103768.34;;;-3.24;74.83
77626;BME280;66794;43.764;10.436;2023-02-10T06:50:48;103783.97;;;-2.94;73.02
77626;BME280;66794;43.764;10.436;2023-02-10T06:53:13;103762.13;;;-3.23;72.84
77626;BME280;66794;43.764;10.436;2023-02-10T06:55:39;103790.44;;;-3.25;75.41
77626;BME280;66794;43.764;10.436;2023-02-10T06:58:04;103768.84;;;-2.88;73.07
77626;BME280;66794;43.764;10.436;2023-02-10T07:00:30;103710.19;;;-1.42;81.00
77626;BME280;66794;43.764;10.436;2023-02-10T07:02:57;103730.69;;;-2.04;71.21
77626;BME280;66794;43.764;10.436;2023-02-10T07:05:23;103776.47;;;-2.56;72.65
77626;BME280;66794;43.764;10.436;2023-02-10T07:07:50;103702.78;;;-3.08;74.07
77626;BME280;66794;43.764;10.436;2023-02-10T07:10:24;103760.03;;;-2.91;74.13
77626;BME280;66794;43.764;10.436;2023-02-10T07:12:51;103757.03;;;-0.84;78.42
77626;BME280;66794;43.764;10.436;2023-02-10T07:15:17;103780.56;;;-2.29;75.63
77626;BME280;66794;43.764;10.436;2023-02-10T07:17:44;103786.78;;;-2.30;75.44
77626;BME280;66794;43.764;10.436;2023-02-10T07:20:11;103753.84;;;-1.55;83.70
77626;BME280;66794;43.764;10.436;2023-02-10T07:22:37;103772.09;;;-1.90;74.93
77626;BME280;66794;43.764;10.436;2023-02-10T07:25:03;103778.91;;;-2.40;77.42
77626;BME280;66794;43.764;10.436;2023-02-10T07:27:29;103753.53;;;-2.62;79.33
77626;BME280;66794;43.764;10.436;2023-02-10T07:29:54;103796.91;;;-1.92;79.47
77626;BME280;66794;43.764;10.436;2023-02-10T07:32:20;103776.41;;;-1.27;75.60
77626;BME280;66794;43.764;10.436;2023-02-10T07:34:45;103766.09;;;-1.45;74.33
77626;BME280;66794;43.764;10.436;2023-02-10T07:37:12;103748.25;;;-1.39;72.33
77626;BME280;66794;43.764;10.436;2023-02-10T07:39:38;103739.19;;;-1.79;73.63
77626;BME280;66794;43.764;10.436;2023-02-10T07:42:04;103797.38;;;-1.07;73.83
77626;BME280;66794;43.764;10.436;2023-02-10T07:44:29;103758.38;;;-1.08;71.77
77626;BME280;66794;43.764;10.436;2023-02-10T07:46:55;103765.34;;;-1.01;73.09
77626;BME280;66794;43.764;10.436;2023-02-10T07:49:20;103747.47;;;-0.94;72.68
77626;BME280;66794;43.764;10.436;2023-02-10T07:51:46;103790.78;;;-0.40;71.26
77626;BME280;66794;43.764;10.436;2023-02-10T07:54:11;103788.44;;;-0.57;70.96
77626;BME280;66794;43.764;10.436;2023-02-10T07:56:37;103796.22;;;-0.46;72.53
77626;BME280;66794;43.764;10.436;2023-02-10T07:59:03;103797.97;;;-0.45;72.58
77626;BME280;66794;43.764;10.436;2023-02-10T08:01:29;103799.16;;;-0.15;72.07
77626;BME280;66794;43.764;10.436;2023-02-10T08:03:54;103796.03;;;0.05;71.15
77626;BME280;66794;43.764;10.436;2023-02-10T08:06:23;103719.06;;;-0.47;70.45
77626;BME280;66794;43.764;10.436;2023-02-10T08:08:49;103786.72;;;0.24;69.04
77626;BME280;66794;43.764;10.436;2023-02-10T08:11:16;103765.34;;;0.28;68.78
77626;BME280;66794;43.764;10.436;2023-02-10T08:13:42;103782.94;;;0.35;68.76
77626;BME280;66794;43.764;10.436;2023-02-10T08:16:08;103796.94;;;0.44;69.15
77626;BME280;66794;43.764;10.436;2023-02-10T08:18:37;103794.78;;;0.60;69.41
77626;BME280;66794;43.764;10.436;2023-02-10T08:21:03;103795.41;;;1.05;69.01
77626;BME280;66794;43.764;10.436;2023-02-10T08:23:31;103797.69;;;1.19;66.06
77626;BME280;66794;43.764;10.436;2023-02-10T08:25:57;103804.31;;;1.39;65.30
77626;BME280;66794;43.764;10.436;2023-02-10T08:28:22;103810.56;;;1.38;65.16
77626;BME280;66794;43.764;10.436;2023-02-10T08:30:49;103775.91;;;1.03;67.27
77626;BME280;66794;43.764;10.436;2023-02-10T08:33:14;103814.22;;;1.34;65.87
77626;BME280;66794;43.764;10.436;2023-02-10T08:35:40;103818.06;;;1.56;66.43
77626;BME280;66794;43.764;10.436;2023-02-10T08:38:06;103816.66;;;1.43;67.02
77626;BME280;66794;43.764;10.436;2023-02-10T08:40:32;103812.13;;;1.77;65.01
77626;BME280;66794;43.764;10.436;2023-02-10T08:42:58;103768.59;;;1.41;65.16
77626;BME280;66794;43.764;10.436;2023-02-10T08:45:23;103801.91;;;1.61;65.04
77626;BME280;66794;43.764;10.436;2023-02-10T08:47:49;103816.75;;;2.02;64.17
77626;BME280;66794;43.764;10.436;2023-02-10T08:50:15;103811.16;;;2.09;63.31
77626;BME280;66794;43.764;10.436;2023-02-10T08:52:41;103794.09;;;1.84;62.69
77626;BME280;66794;43.764;10.436;2023-02-10T08:55:07;103820.84;;;2.14;62.86
77626;BME280;66794;43.764;10.436;2023-02-10T08:57:33;103813.25;;;2.28;61.79
77626;BME280;66794;43.764;10.436;2023-02-10T08:59:59;103826.09;;;2.46;63.05
77626;BME280;66794;43.764;10.436;2023-02-10T09:02:24;103784.22;;;2.16;63.46
77626;BME280;66794;43.764;10.436;2023-02-10T09:04:50;103819.41;;;2.59;63.31
77626;BME280;66794;43.764;10.436;2023-02-10T09:07:15;103811.75;;;2.75;62.22
77626;BME280;66794;43.764;10.436;2023-02-10T09:09:42;103826.13;;;2.73;62.04
77626;BME280;66794;43.764;10.436;2023-02-10T09:12:09;103803.16;;;2.66;61.48
77626;BME280;66794;43.764;10.436;2023-02-10T09:14:39;103812.09;;;2.64;58.57
77626;BME280;66794;43.764;10.436;2023-02-10T09:17:06;103824.00;;;2.82;57.81
77626;BME280;66794;43.764;10.436;2023-02-10T09:19:34;103794.47;;;2.85;57.82
77626;BME280;66794;43.764;10.436;2023-02-10T09:22:00;103830.78;;;2.94;58.62
77626;BME280;66794;43.764;10.436;2023-02-10T09:24:25;103793.09;;;2.99;58.83
77626;BME280;66794;43.764;10.436;2023-02-10T09:26:51;103830.19;;;3.11;58.37
77626;BME280;66794;43.764;10.436;2023-02-10T09:29:16;103833.94;;;3.32;56.50
77626;BME280;66794;43.764;10.436;2023-02-10T09:31:42;103815.19;;;3.32;58.90
77626;BME280;66794;43.764;10.436;2023-02-10T09:34:08;103810.25;;;3.45;55.27
77626;BME280;66794;43.764;10.436;2023-02-10T09:36:34;103780.56;;;3.26;55.02
77626;BME280;66794;43.764;10.436;2023-02-10T09:38:59;103822.16;;;3.36;52.34
77626;BME280;66794;43.764;10.436;2023-02-10T09:44:03;103807.19;;;4.02;51.83
77626;BME280;66794;43.764;10.436;2023-02-10T09:46:49;103837.34;;;4.32;51.19
77626;BME280;66794;43.764;10.436;2023-02-10T09:49:35;103818.31;;;4.38;50.75
77626;BME280;66794;43.764;10.436;2023-02-10T09:54:38;103823.50;;;4.65;48.93
77626;BME280;66794;43.764;10.436;2023-02-10T09:57:08;103827.69;;;4.72;48.59
77626;BME280;66794;43.764;10.436;2023-02-10T09:59:37;103833.56;;;4.82;48.12
77626;BME280;66794;43.764;10.436;2023-02-10T10:04:39;103815.19;;;4.93;43.82
77626;BME280;66794;43.764;10.436;2023-02-10T10:07:13;103812.66;;;5.31;48.74
77626;BME280;66794;43.764;10.436;2023-02-10T10:09:52;103788.97;;;5.59;45.70
77626;BME280;66794;43.764;10.436;2023-02-10T10:12:21;103820.16;;;6.04;45.57
77626;BME280;66794;43.764;10.436;2023-02-10T10:14:47;103771.44;;;5.71;45.69
77626;BME280;66794;43.764;10.436;2023-02-10T10:34:52;103803.84;;;6.26;40.45
77626;BME280;66794;43.764;10.436;2023-02-10T10:37:22;103811.06;;;6.62;40.58
77626;BME280;66794;43.764;10.436;2023-02-10T10:39:51;103808.78;;;6.35;40.55
77626;BME280;66794;43.764;10.436;2023-02-10T10:44:50;103800.25;;;6.44;42.17
77626;BME280;66794;43.764;10.436;2023-02-10T10:47:42;103790.78;;;6.91;41.71
77626;BME280;66794;43.764;10.436;2023-02-10T10:50:14;103758.94;;;6.63;42.73
77626;BME280;66794;43.764;10.436;2023-02-10T10:52:41;103792.22;;;6.62;40.45
77626;BME280;66794;43.764;10.436;2023-02-10T10:55:16;103794.34;;;7.26;41.86
77626;BME280;66794;43.764;10.436;2023-02-10T10:57:44;103784.88;;;7.17;41.64
77626;BME280;66794;43.764;10.436;2023-02-10T11:00:20;103792.50;;;7.09;41.79
77626;BME280;66794;43.764;10.436;2023-02-10T11:02:58;103788.31;;;7.21;40.47
77626;BME280;66794;43.764;10.436;2023-02-10T11:05:28;103789.72;;;7.28;40.53
77626;BME280;66794;43.764;10.436;2023-02-10T11:07:55;103770.31;;;7.21;41.00
77626;BME280;66794;43.764;10.436;2023-02-10T11:10:35;103762.22;;;7.21;39.77
77626;BME280;66794;43.764;10.436;2023-02-10T11:13:02;103787.28;;;7.06;39.14
77626;BME280;66794;43.764;10.436;2023-02-10T11:15:39;103781.00;;;6.88;39.38
77626;BME280;66794;43.764;10.436;2023-02-10T11:18:18;103773.50;;;7.29;38.58
77626;BME280;66794;43.764;10.436;2023-02-10T11:21:06;103731.94;;;7.16;38.20
77626;BME280;66794;43.764;10.436;2023-02-10T11:23:52;103631.72;;;6.92;39.69
77626;BME280;66794;43.764;10.436;2023-02-10T11:26:25;103762.84;;;7.93;37.80
77626;BME280;66794;43.764;10.436;2023-02-10T11:28:53;103746.41;;;7.97;37.00
77626;BME280;66794;43.764;10.436;2023-02-10T11:36:34;103688.13;;;8.25;36.70
77626;BME280;66794;43.764;10.436;2023-02-10T11:39:14;103717.28;;;8.65;36.11
77626;BME280;66794;43.764;10.436;2023-02-10T11:41:41;103729.06;;;8.79;35.80
77626;BME280;66794;43.764;10.436;2023-02-10T11:44:31;103739.88;;;8.17;36.11
77626;BME280;66794;43.764;10.436;2023-02-10T11:47:05;103736.84;;;8.39;35.32
77626;BME280;66794;43.764;10.436;2023-02-10T11:49:45;103727.41;;;8.30;33.91
77626;BME280;66794;43.764;10.436;2023-02-10T11:52:12;103724.69;;;8.62;33.15
77626;BME280;66794;43.764;10.436;2023-02-10T11:54:39;103706.88;;;8.43;34.40
77626;BME280;66794;43.764;10.436;2023-02-10T12:00:19;103723.84;;;9.06;34.52
77626;BME280;66794;43.764;10.436;2023-02-10T12:03:13;103722.97;;;8.75;32.96
77626;BME280;66794;43.764;10.436;2023-02-10T12:05:58;103704.66;;;9.25;33.97
77626;BME280;66794;43.764;10.436;2023-02-10T12:11:17;103702.75;;;9.41;31.82
77626;BME280;66794;43.764;10.436;2023-02-10T12:16:44;103675.72;;;8.82;31.42
77626;BME280;66794;43.764;10.436;2023-02-10T12:25:29;103694.59;;;9.12;30.37
77626;BME280;66794;43.764;10.436;2023-02-10T12:41:41;103652.50;;;9.08;29.30
77626;BME280;66794;43.764;10.436;2023-02-10T12:47:14;103645.53;;;9.47;28.77
77626;BME280;66794;43.764;10.436;2023-02-10T12:52:24;103591.06;;;9.10;28.00
77626;BME280;66794;43.764;10.436;2023-02-10T12:55:02;103617.44;;;9.07;27.88
77626;BME280;66794;43.764;10.436;2023-02-10T12:57:38;103632.69;;;9.36;28.37
77626;BME280;66794;43.764;10.436;2023-02-10T13:02:50;103631.09;;;10.02;27.94
77626;BME280;66794;43.764;10.436;2023-02-10T13:05:25;103625.00;;;9.71;28.32
77626;BME280;66794;43.764;10.436;2023-02-10T13:07:58;103625.19;;;9.68;29.38
77626;BME280;66794;43.764;10.436;2023-02-10T13:13:26;103614.91;;;9.46;29.65
77626;BME280;66794;43.764;10.436;2023-02-10T13:15:52;103614.22;;;9.57;29.06
77626;BME280;66794;43.764;10.436;2023-02-10T13:18:22;103599.66;;;9.99;28.63
77626;BME280;66794;43.764;10.436;2023-02-10T13:21:04;103523.00;;;9.45;29.44
77626;BME280;66794;43.764;10.436;2023-02-10T13:23:47;103594.97;;;9.89;28.36
77626;BME280;66794;43.764;10.436;2023-02-10T13:34:35;103558.69;;;9.79;29.26
77626;BME280;66794;43.764;10.436;2023-02-10T13:39:54;103544.13;;;10.07;28.31
77626;BME280;66794;43.764;10.436;2023-02-10T13:42:29;103533.59;;;9.62;28.46
77626;BME280;66794;43.764;10.436;2023-02-10T13:47:48;103561.66;;;10.92;27.22
77626;BME280;66794;43.764;10.436;2023-02-10T13:53:02;103574.91;;;10.84;29.30
77626;BME280;66794;43.764;10.436;2023-02-10T13:55:37;103576.66;;;10.72;29.34
77626;BME280;66794;43.764;10.436;2023-02-10T14:00:30;103555.25;;;11.05;30.53
77626;BME280;66794;43.764;10.436;2023-02-10T14:05:57;103574.81;;;10.72;31.15
77626;BME280;66794;43.764;10.436;2023-02-10T14:08:40;103576.00;;;10.94;30.15
77626;BME280;66794;43.764;10.436;2023-02-10T14:13:43;103549.63;;;10.96;30.00
77626;BME280;66794;43.764;10.436;2023-02-10T14:18:43;103558.41;;;11.49;30.14
77626;BME280;66794;43.764;10.436;2023-02-10T14:21:13;103560.44;;;11.21;33.55
77626;BME280;66794;43.764;10.436;2023-02-10T14:23:42;103546.19;;;11.30;31.50
77626;BME280;66794;43.764;10.436;2023-02-10T14:26:20;103566.09;;;11.55;35.62
77626;BME280;66794;43.764;10.436;2023-02-10T14:28:49;103570.13;;;11.00;35.00
77626;BME280;66794;43.764;10.436;2023-02-10T14:31:22;103569.13;;;11.14;34.46
77626;BME280;66794;43.764;10.436;2023-02-10T14:33:58;103569.13;;;11.26;36.57
77626;BME280;66794;43.764;10.436;2023-02-10T14:36:25;103541.41;;;10.85;38.07
77626;BME280;66794;43.764;10.436;2023-02-10T14:38:54;103563.34;;;11.18;37.51
77626;BME280;66794;43.764;10.436;2023-02-10T14:41:22;103565.22;;;11.18;38.33
77626;BME280;66794;43.764;10.436;2023-02-10T14:43:49;103569.19;;;11.38;38.10
77626;BME280;66794;43.764;10.436;2023-02-10T14:46:45;103565.03;;;10.70;35.95
77626;BME280;66794;43.764;10.436;2023-02-10T14:49:18;103521.56;;;10.84;35.39
77626;BME280;66794;43.764;10.436;2023-02-10T14:51:45;103568.16;;;11.02;34.44
77626;BME280;66794;43.764;10.436;2023-02-10T14:54:25;103569.28;;;10.74;35.94
77626;BME280;66794;43.764;10.436;2023-02-10T14:56:53;103564.50;;;10.39;36.22